Ana Sayfa
METAR-TAF:

METAR-TAF

Havaalanları :

Macas, Ekvador

Enlem: 02-17-57-S, Boylam: 078-07-15-W, yükseklik: 1052 m

Güncel hava durumu gözlemi

Rapor saat 18:00 UTC de 1 saat ve 5 dakika önce yapıldı.
Rüzgar kuzey/kuzeydoğudan 4 kt, kuzey/kuzeybatı ve doğu/güneydoğu arasında değişken
Sıcaklık 28°C
Nem 51%
Basınç 1014 hPa
Görüş mesafesi 10 km veya daha fazla
3600 ft yükseklikte parçalı bulutlu

METAR: SEMC 081800Z 03004KT 330V120 9999 SCT036 28/17 Q1014 RMK A2996

Saat: 14:05 (19:05 UTC)


TAF: eksik

4.000'den fazla havaalanı için hava durumu gözlemleri ve tahminleri (METAR ve TAF raporları).

Kullanılabilir istasyonlar harita üzerinde sarı ve kırmızı noktalarla gösterilir.

İstasyonun adını görmek için fareyi noktanın üzerinde gezdirin.

Sonrasında hava gözlem ve tahminlerini görmek için tıklayın.

Haritayı değiştirmek için: yaklaştırmak için siyah artı işaretli yeşil düğmeye ve uzaklaştırmak için de eksi işaretli düğmeye hızla tıklayın; bitişik haritalar için yeşil okları kullanın.


METAR-TAF: